createdAt,value
2018-12-23T00:00:39.052Z,3.07
2018-12-23T00:03:07.349Z,2.70
2018-12-23T00:05:35.678Z,3.23
2018-12-23T00:08:04.006Z,2.83
2018-12-23T00:10:32.486Z,2.77
2018-12-23T00:13:00.807Z,2.07
2018-12-23T00:15:29.110Z,1.83
2018-12-23T00:17:57.421Z,1.63
2018-12-23T00:20:25.696Z,1.70
2018-12-23T00:22:54.009Z,1.90
2018-12-23T00:25:22.324Z,1.77
2018-12-23T00:27:50.618Z,2.23
2018-12-23T00:30:18.922Z,2.30
2018-12-23T00:32:47.645Z,1.83
2018-12-23T00:35:20.322Z,1.83
2018-12-23T00:37:46.255Z,1.67
2018-12-23T00:40:14.561Z,2.03
2018-12-23T00:42:42.879Z,1.90
2018-12-23T00:45:11.186Z,2.03
2018-12-23T00:47:39.486Z,2.73
2018-12-23T00:50:08.472Z,1.90
2018-12-23T00:52:36.757Z,1.97
2018-12-23T00:55:05.622Z,1.90
2018-12-23T00:57:33.957Z,1.63
2018-12-23T01:00:02.250Z,2.47
2018-12-23T01:02:30.559Z,1.70
2018-12-23T01:04:58.949Z,2.00
2018-12-23T01:07:27.257Z,1.63
2018-12-23T01:09:55.550Z,2.47
2018-12-23T01:12:23.847Z,1.80
2018-12-23T01:14:52.170Z,1.87
2018-12-23T01:17:20.489Z,2.17
2018-12-23T01:19:48.798Z,1.90
2018-12-23T01:22:17.120Z,1.40
2018-12-23T01:24:45.422Z,2.00
2018-12-23T01:27:13.734Z,1.80
2018-12-23T01:29:42.054Z,1.60
2018-12-23T01:32:10.351Z,2.07
2018-12-23T01:34:38.669Z,1.73
2018-12-23T01:37:06.974Z,2.10
2018-12-23T01:39:35.447Z,1.97
2018-12-23T01:42:03.862Z,1.87
2018-12-23T01:44:32.169Z,1.87
2018-12-23T01:47:00.523Z,1.70
2018-12-23T01:49:28.842Z,1.80
2018-12-23T01:51:57.151Z,1.83
2018-12-23T01:54:25.474Z,1.80
2018-12-23T01:56:53.765Z,2.10
2018-12-23T01:59:22.068Z,1.83
2018-12-23T02:01:50.475Z,1.33
2018-12-23T02:04:18.778Z,1.33
2018-12-23T02:06:47.125Z,1.73
2018-12-23T02:09:15.405Z,2.97
2018-12-23T02:11:43.678Z,1.97
2018-12-23T02:14:12.142Z,1.57
2018-12-23T02:16:40.411Z,2.90
2018-12-23T02:19:08.892Z,1.63
2018-12-23T02:21:37.282Z,1.83
2018-12-23T02:24:05.557Z,1.83
2018-12-23T02:26:33.819Z,2.27
2018-12-23T02:29:02.194Z,4.00
2018-12-23T02:31:30.495Z,2.00
2018-12-23T02:33:58.759Z,3.30
2018-12-23T02:36:27.027Z,2.33
2018-12-23T02:38:57.563Z,2.10
2018-12-23T02:41:31.489Z,1.70
2018-12-23T02:43:55.890Z,2.27
2018-12-23T02:46:24.164Z,2.23
2018-12-23T02:48:52.424Z,2.33
2018-12-23T02:51:20.714Z,2.93
2018-12-23T02:53:48.982Z,2.37
2018-12-23T02:56:17.268Z,2.40
2018-12-23T02:58:45.643Z,2.77
2018-12-23T03:01:13.926Z,2.47
2018-12-23T03:03:42.195Z,2.80
2018-12-23T03:06:10.495Z,2.03
2018-12-23T03:08:38.773Z,2.70
2018-12-23T03:11:07.149Z,2.30
2018-12-23T03:13:35.411Z,2.70
2018-12-23T03:16:03.795Z,2.10
2018-12-23T03:18:32.054Z,2.03
2018-12-23T03:21:00.338Z,1.50
2018-12-23T03:23:28.611Z,2.70
2018-12-23T03:25:56.871Z,2.27
2018-12-23T03:28:25.178Z,2.23
2018-12-23T03:30:53.487Z,1.60
2018-12-23T03:33:21.783Z,1.80
2018-12-23T03:35:50.075Z,3.53
2018-12-23T03:38:18.351Z,2.63
2018-12-23T03:40:46.628Z,2.57
2018-12-23T03:43:14.923Z,2.47
2018-12-23T03:45:43.179Z,1.67
2018-12-23T03:48:11.526Z,1.40
2018-12-23T03:50:39.835Z,3.10
2018-12-23T03:53:08.175Z,1.80
2018-12-23T03:55:36.440Z,2.30
2018-12-23T03:58:04.829Z,2.27
2018-12-23T04:00:33.134Z,2.50
2018-12-23T04:03:01.487Z,2.70
2018-12-23T04:05:29.802Z,2.60
2018-12-23T04:07:58.102Z,3.83
2018-12-23T04:10:26.410Z,2.60
2018-12-23T04:12:54.787Z,2.17
2018-12-23T04:15:23.063Z,2.40
2018-12-23T04:17:51.326Z,3.80
2018-12-23T04:20:19.649Z,2.00
2018-12-23T04:22:47.958Z,3.90
2018-12-23T04:25:16.251Z,2.93
2018-12-23T04:27:44.543Z,2.60
2018-12-23T04:30:12.795Z,2.23
2018-12-23T04:32:41.059Z,2.80
2018-12-23T04:35:09.335Z,2.87
2018-12-23T04:37:37.594Z,2.77
2018-12-23T04:40:05.931Z,2.40
2018-12-23T04:42:34.190Z,2.40
2018-12-23T04:45:02.473Z,2.60
2018-12-23T04:47:30.761Z,2.30
2018-12-23T04:49:59.036Z,2.53
2018-12-23T04:52:27.312Z,2.30
2018-12-23T04:54:55.565Z,2.53
2018-12-23T04:57:23.838Z,2.97
2018-12-23T04:59:52.256Z,3.53
2018-12-23T05:02:20.574Z,3.00
2018-12-23T05:04:48.831Z,2.43
2018-12-23T05:07:17.107Z,3.10
2018-12-23T05:09:45.436Z,2.70
2018-12-23T05:12:13.690Z,2.60
2018-12-23T05:14:41.955Z,2.90
2018-12-23T05:17:10.274Z,3.33
2018-12-23T05:19:38.549Z,3.13
2018-12-23T05:22:06.811Z,2.67
2018-12-23T05:24:35.102Z,2.80
2018-12-23T05:27:03.370Z,3.80
2018-12-23T05:29:31.631Z,3.87
2018-12-23T05:31:59.930Z,2.83
2018-12-23T05:34:28.290Z,2.47
2018-12-23T05:36:56.588Z,2.40
2018-12-23T05:39:24.847Z,1.73
2018-12-23T05:41:53.199Z,2.63
2018-12-23T05:44:21.471Z,3.10
2018-12-23T05:46:49.758Z,2.87
2018-12-23T05:49:18.058Z,2.90
2018-12-23T05:51:46.311Z,3.40
2018-12-23T05:54:14.570Z,2.90
2018-12-23T05:56:42.873Z,3.13
2018-12-23T05:59:11.138Z,2.80
2018-12-23T06:01:39.442Z,3.10
2018-12-23T06:04:07.695Z,3.97
2018-12-23T06:06:35.995Z,2.20
2018-12-23T06:09:06.563Z,2.33
2018-12-23T06:11:34.858Z,2.47
2018-12-23T06:14:03.133Z,2.30
2018-12-23T06:16:31.426Z,2.33
2018-12-23T06:18:59.732Z,2.30
2018-12-23T06:21:28.023Z,2.10
2018-12-23T06:23:56.309Z,3.80
2018-12-23T06:26:24.590Z,2.97
2018-12-23T06:28:52.887Z,2.20
2018-12-23T06:31:21.157Z,2.80
2018-12-23T06:33:49.470Z,2.43
2018-12-23T06:36:17.865Z,2.93
2018-12-23T06:38:46.147Z,2.50
2018-12-23T06:41:14.454Z,3.23
2018-12-23T06:43:42.738Z,2.83
2018-12-23T06:46:11.030Z,2.70
2018-12-23T06:48:39.350Z,2.70
2018-12-23T06:51:08.042Z,3.33
2018-12-23T06:53:36.314Z,4.40
2018-12-23T06:56:04.703Z,3.23
2018-12-23T06:58:32.986Z,3.77
2018-12-23T07:01:01.255Z,2.50
2018-12-23T07:03:29.515Z,3.40
2018-12-23T07:05:57.808Z,3.37
2018-12-23T07:08:26.082Z,3.10
2018-12-23T07:10:54.360Z,2.90
2018-12-23T07:13:22.643Z,3.20
2018-12-23T07:15:50.906Z,3.20
2018-12-23T07:18:19.166Z,2.80
2018-12-23T07:20:47.439Z,2.90
2018-12-23T07:23:15.839Z,2.40
2018-12-23T07:25:44.109Z,2.83
2018-12-23T07:28:12.374Z,2.90
2018-12-23T07:30:40.634Z,2.50
2018-12-23T07:33:09.044Z,3.40
2018-12-23T07:35:37.354Z,3.20
2018-12-23T07:38:05.626Z,3.20
2018-12-23T07:40:34.150Z,6.87
2018-12-23T07:43:02.422Z,2.63
2018-12-23T07:45:30.697Z,3.77
2018-12-23T07:47:59.008Z,3.27
2018-12-23T07:50:27.611Z,2.53
2018-12-23T07:52:55.894Z,3.90
2018-12-23T07:55:24.154Z,3.20
2018-12-23T07:57:52.437Z,2.23
2018-12-23T08:00:20.731Z,4.03
2018-12-23T08:02:49.131Z,3.40
2018-12-23T08:05:17.454Z,5.07
2018-12-23T08:07:45.732Z,5.83
2018-12-23T08:10:14.056Z,4.60
2018-12-23T08:12:42.313Z,6.77
2018-12-23T08:15:10.583Z,4.47
2018-12-23T08:17:38.859Z,4.10
2018-12-23T08:20:07.132Z,4.50
2018-12-23T08:22:35.398Z,3.40
2018-12-23T08:25:03.830Z,4.70
2018-12-23T08:27:32.103Z,4.20
2018-12-23T08:30:00.389Z,5.10
2018-12-23T08:32:28.764Z,4.77
2018-12-23T08:34:57.051Z,4.70
2018-12-23T08:37:25.318Z,4.80
2018-12-23T08:39:53.715Z,4.47
2018-12-23T08:42:21.976Z,4.50
2018-12-23T08:44:50.270Z,4.90
2018-12-23T08:47:18.552Z,4.73
2018-12-23T08:49:46.818Z,4.67
2018-12-23T08:52:15.126Z,4.13
2018-12-23T08:54:43.607Z,4.60
2018-12-23T08:57:11.870Z,4.80
2018-12-23T08:59:40.134Z,5.00
2018-12-23T09:02:08.452Z,5.40
2018-12-23T09:04:36.762Z,6.37
2018-12-23T09:07:05.264Z,4.77
2018-12-23T09:09:33.532Z,5.40
2018-12-23T09:12:01.798Z,4.30
2018-12-23T09:14:30.143Z,6.60
2018-12-23T09:16:58.427Z,5.20
2018-12-23T09:19:26.703Z,4.37
2018-12-23T09:21:54.985Z,5.90
2018-12-23T09:24:23.480Z,5.50
2018-12-23T09:26:51.770Z,4.33
2018-12-23T09:29:20.045Z,4.53
2018-12-23T09:31:48.338Z,4.20
2018-12-23T09:34:16.731Z,4.50
2018-12-23T09:36:45.057Z,5.70
2018-12-23T09:39:13.343Z,4.87
2018-12-23T09:41:41.627Z,5.83
2018-12-23T09:44:09.939Z,4.70
2018-12-23T09:46:38.246Z,4.70
2018-12-23T09:49:06.510Z,4.20
2018-12-23T09:51:34.763Z,4.70
2018-12-23T09:54:03.155Z,5.47
2018-12-23T09:56:31.481Z,4.93
2018-12-23T09:58:59.809Z,4.20
2018-12-23T10:01:28.084Z,4.63
2018-12-23T10:03:56.478Z,4.80
2018-12-23T10:06:24.998Z,4.90
2018-12-23T10:08:53.308Z,3.80
2018-12-23T10:11:21.578Z,4.33
2018-12-23T10:13:49.922Z,4.23
2018-12-23T10:16:18.205Z,6.00
2018-12-23T10:18:46.485Z,4.30
2018-12-23T10:21:14.802Z,6.97
2018-12-23T10:23:43.120Z,3.63
2018-12-23T10:26:11.476Z,7.50
2018-12-23T10:28:39.826Z,6.67
2018-12-23T10:31:08.116Z,4.50
2018-12-23T10:33:36.525Z,4.53
2018-12-23T10:36:04.835Z,4.80
2018-12-23T10:38:33.103Z,4.80
2018-12-23T10:41:01.374Z,3.63
2018-12-23T10:43:29.722Z,4.97
2018-12-23T10:45:57.982Z,4.77
2018-12-23T10:48:27.950Z,4.20
2018-12-23T10:50:57.423Z,4.50
2018-12-23T10:53:25.774Z,4.70
2018-12-23T10:55:54.636Z,4.90
2018-12-23T10:58:23.027Z,4.33
2018-12-23T11:00:51.503Z,5.30
2018-12-23T11:03:20.246Z,5.47
2018-12-23T11:05:48.821Z,4.47
2018-12-23T11:08:17.274Z,5.07
2018-12-23T11:10:45.800Z,4.23
2018-12-23T11:13:14.155Z,5.00
2018-12-23T11:15:42.410Z,6.20
2018-12-23T11:18:10.790Z,5.67
2018-12-23T11:20:39.182Z,4.70
2018-12-23T11:23:07.545Z,5.53
2018-12-23T11:25:37.687Z,4.90
2018-12-23T11:28:06.618Z,4.90
2018-12-23T11:30:34.998Z,4.33
2018-12-23T11:33:03.594Z,8.30
2018-12-23T11:35:32.027Z,5.30
2018-12-23T11:38:00.429Z,4.70
2018-12-23T11:40:28.904Z,4.30
2018-12-23T11:42:57.486Z,5.53
2018-12-23T11:45:26.259Z,4.93
2018-12-23T11:47:54.616Z,6.30
2018-12-23T11:50:23.071Z,6.30
2018-12-23T11:52:51.458Z,4.57
2018-12-23T11:55:19.822Z,6.10
2018-12-23T11:57:48.165Z,4.70
2018-12-23T12:00:16.519Z,5.20
2018-12-23T12:02:45.170Z,4.50
2018-12-23T12:05:13.829Z,4.10
2018-12-23T12:07:42.418Z,8.60
2018-12-23T12:10:10.877Z,6.57
2018-12-23T12:12:39.262Z,7.57
2018-12-23T12:15:07.776Z,5.20
2018-12-23T12:17:36.119Z,8.20
2018-12-23T12:20:04.780Z,4.60
2018-12-23T12:22:33.103Z,7.30
2018-12-23T12:25:01.391Z,5.17
2018-12-23T12:27:30.855Z,8.00
2018-12-23T12:29:59.262Z,5.90
2018-12-23T12:32:27.614Z,6.47
2018-12-23T12:34:55.948Z,5.77
2018-12-23T12:37:24.778Z,6.77
2018-12-23T12:39:53.526Z,5.77
2018-12-23T12:42:21.803Z,5.93
2018-12-23T12:44:50.143Z,6.37
2018-12-23T12:47:18.465Z,5.13
2018-12-23T12:49:47.058Z,6.00
2018-12-23T12:52:15.359Z,7.50
2018-12-23T12:54:43.619Z,6.53
2018-12-23T12:57:12.087Z,5.63
2018-12-23T12:59:40.368Z,6.43
2018-12-23T13:02:08.670Z,7.63
2018-12-23T13:04:37.000Z,6.43
2018-12-23T13:07:05.354Z,8.87
2018-12-23T13:09:33.670Z,6.13
2018-12-23T13:12:01.922Z,6.93
2018-12-23T13:14:30.262Z,6.40
2018-12-23T13:16:58.556Z,6.60
2018-12-23T13:19:26.885Z,5.53
2018-12-23T13:21:55.194Z,6.23
2018-12-23T13:24:23.613Z,6.47
2018-12-23T13:26:51.942Z,7.30
2018-12-23T13:29:20.323Z,6.77
2018-12-23T13:31:48.605Z,7.80
2018-12-23T13:34:16.934Z,7.77
2018-12-23T13:36:45.215Z,10.10
2018-12-23T13:39:13.498Z,6.50
2018-12-23T13:41:57.507Z,7.30
2018-12-23T13:44:37.345Z,5.70
2018-12-23T13:49:34.847Z,6.83
2018-12-23T13:52:20.555Z,6.10
2018-12-23T13:55:31.990Z,7.47
2018-12-23T14:00:16.416Z,6.07
2018-12-23T14:03:02.281Z,7.67
2018-12-23T14:05:48.652Z,8.00
2018-12-23T14:10:33.156Z,6.80
2018-12-23T14:13:01.464Z,5.63
2018-12-23T14:15:29.774Z,8.43
2018-12-23T14:17:58.086Z,6.30
2018-12-23T14:20:26.344Z,5.00
2018-12-23T14:22:54.669Z,4.60
2018-12-23T14:25:23.060Z,4.90
2018-12-23T14:27:51.398Z,3.60
2018-12-23T14:30:19.923Z,6.00
2018-12-23T14:32:48.250Z,4.20
2018-12-23T14:35:16.562Z,3.70
2018-12-23T14:37:44.955Z,3.70
2018-12-23T14:40:13.351Z,3.57
2018-12-23T14:42:41.682Z,3.67
2018-12-23T14:45:10.107Z,3.97
2018-12-23T14:47:40.477Z,3.60
2018-12-23T14:50:09.933Z,3.33
2018-12-23T14:52:38.988Z,3.40
2018-12-23T14:55:09.072Z,2.90
2018-12-23T14:57:37.485Z,3.60
2018-12-23T15:00:07.649Z,4.10
2018-12-23T15:02:35.931Z,4.53
2018-12-23T15:05:05.030Z,3.43
2018-12-23T15:08:24.099Z,4.00
2018-12-23T15:10:53.579Z,3.87
2018-12-23T15:13:23.072Z,2.83
2018-12-23T15:15:52.863Z,3.43
2018-12-23T15:18:22.995Z,3.40
2018-12-23T15:20:53.371Z,2.70
2018-12-23T15:23:24.354Z,3.80
2018-12-23T15:25:54.713Z,3.63
2018-12-23T15:28:24.598Z,3.70
2018-12-23T15:30:55.384Z,4.33
2018-12-23T15:33:26.326Z,5.10
2018-12-23T15:35:56.403Z,4.97
2018-12-23T15:38:25.931Z,6.07
2018-12-23T15:40:56.153Z,5.27
2018-12-23T15:43:27.475Z,6.87
2018-12-23T15:45:58.980Z,7.37
2018-12-23T15:48:29.252Z,6.50
2018-12-23T15:50:59.127Z,4.73
2018-12-23T15:53:28.675Z,7.10
2018-12-23T15:56:02.184Z,5.00
2018-12-23T15:58:32.303Z,5.80
2018-12-23T16:01:02.710Z,6.07
2018-12-23T16:03:33.114Z,5.30
2018-12-23T16:06:03.267Z,4.80
2018-12-23T16:08:34.468Z,3.93
2018-12-23T16:11:04.439Z,4.07
2018-12-23T16:13:34.452Z,5.70
2018-12-23T16:16:04.237Z,3.10
2018-12-23T16:18:35.427Z,4.10
2018-12-23T16:21:05.610Z,3.70
2018-12-23T16:23:35.972Z,4.90
2018-12-23T16:26:08.369Z,4.80
2018-12-23T16:28:38.087Z,4.80
2018-12-23T16:31:08.418Z,5.40
2018-12-23T16:33:39.399Z,5.67
2018-12-23T16:36:08.891Z,6.17
2018-12-23T16:38:38.448Z,8.00
2018-12-23T16:41:08.701Z,7.70
2018-12-23T16:43:41.106Z,7.67
2018-12-23T16:46:13.308Z,9.30
2018-12-23T16:48:44.064Z,10.37
2018-12-23T16:51:14.210Z,10.30
2018-12-23T16:53:44.180Z,8.73
2018-12-23T16:56:14.241Z,9.80
2018-12-23T16:58:43.829Z,9.37
2018-12-23T17:01:13.728Z,10.00
2018-12-23T17:03:44.134Z,9.67
2018-12-23T17:06:14.404Z,11.23
2018-12-23T17:08:44.322Z,13.23
2018-12-23T17:11:14.071Z,12.37
2018-12-23T17:13:43.745Z,12.83
2018-12-23T17:16:13.423Z,13.97
2018-12-23T17:18:43.631Z,12.63
2018-12-23T17:21:13.120Z,13.90
2018-12-23T17:23:43.723Z,15.33
2018-12-23T17:26:13.431Z,13.43
2018-12-23T17:28:43.057Z,13.73
2018-12-23T17:31:12.694Z,12.80
2018-12-23T17:33:42.216Z,12.80
2018-12-23T17:36:11.797Z,12.37
2018-12-23T17:38:41.344Z,11.40
2018-12-23T17:41:10.908Z,11.43
2018-12-23T17:43:40.340Z,13.53
2018-12-23T17:46:10.224Z,12.00
2018-12-23T17:48:39.812Z,13.07
2018-12-23T17:51:09.332Z,12.80
2018-12-23T17:53:38.872Z,13.27
2018-12-23T17:56:08.904Z,12.97
2018-12-23T17:58:38.491Z,12.47
2018-12-23T18:01:08.028Z,13.07
2018-12-23T18:03:37.600Z,14.10
2018-12-23T18:06:07.172Z,13.60
2018-12-23T18:08:37.027Z,13.70
2018-12-23T18:11:06.542Z,15.33
2018-12-23T18:13:36.074Z,14.33
2018-12-23T18:16:05.721Z,15.67
2018-12-23T18:18:35.710Z,15.77
2018-12-23T18:21:05.399Z,15.97
2018-12-23T18:23:36.420Z,16.03
2018-12-23T18:26:06.073Z,16.13
2018-12-23T18:28:35.578Z,16.70
2018-12-23T18:31:05.139Z,17.90
2018-12-23T18:33:35.139Z,16.20
2018-12-23T18:36:04.651Z,16.20
2018-12-23T18:38:34.390Z,16.43
2018-12-23T18:41:05.670Z,15.93
2018-12-23T18:43:35.496Z,16.97
2018-12-23T18:46:05.541Z,15.27
2018-12-23T18:48:35.382Z,16.33
2018-12-23T18:51:04.920Z,17.73
2018-12-23T18:53:34.582Z,16.17
2018-12-23T18:56:04.094Z,19.37
2018-12-23T18:58:33.703Z,15.87
2018-12-23T19:01:05.287Z,14.10
2018-12-23T19:03:34.852Z,14.67
2018-12-23T19:06:05.771Z,15.40
2018-12-23T19:09:04.804Z,14.27
2018-12-23T19:12:17.300Z,15.00
2018-12-23T19:15:27.612Z,13.30
2018-12-23T19:18:22.092Z,16.47
2018-12-23T19:21:25.076Z,17.33
2018-12-23T19:24:42.000Z,17.10
2018-12-23T19:27:47.635Z,16.73
2018-12-23T19:30:40.140Z,16.57
2018-12-23T19:33:46.148Z,19.03
2018-12-23T19:37:01.945Z,18.13
2018-12-23T19:40:18.684Z,18.13
2018-12-23T19:43:24.106Z,18.67
2018-12-23T19:46:47.986Z,17.77
2018-12-23T19:49:50.942Z,17.70
2018-12-23T19:52:53.603Z,17.47
2018-12-23T19:56:10.476Z,21.97
2018-12-23T19:59:25.588Z,16.60
2018-12-23T20:02:36.586Z,17.33
2018-12-23T20:05:43.416Z,14.97
2018-12-23T20:08:36.706Z,15.10
2018-12-23T20:11:48.853Z,14.90
2018-12-23T20:14:42.508Z,14.97
2018-12-23T20:17:47.017Z,12.77
2018-12-23T20:20:52.575Z,13.83
2018-12-23T20:24:18.539Z,13.70
2018-12-23T20:27:25.139Z,11.67
2018-12-23T20:30:16.483Z,10.20
2018-12-23T20:33:23.035Z,11.07
2018-12-23T20:36:27.728Z,9.83
2018-12-23T20:39:37.175Z,9.60
2018-12-23T20:42:44.696Z,8.63
2018-12-23T20:45:59.631Z,8.60
2018-12-23T20:49:04.728Z,8.27
2018-12-23T20:52:14.679Z,6.50
2018-12-23T20:55:43.323Z,6.13
2018-12-23T20:58:46.611Z,6.23
2018-12-23T21:01:45.931Z,8.00
2018-12-23T21:04:55.160Z,11.33
2018-12-23T21:08:14.433Z,5.60
2018-12-23T21:11:30.435Z,4.03
2018-12-23T21:14:42.349Z,2.97
2018-12-23T21:17:35.662Z,2.73
2018-12-23T21:20:50.489Z,2.77
2018-12-23T21:23:53.701Z,1.87
2018-12-23T21:26:55.851Z,1.40
2018-12-23T21:29:58.283Z,0.93
2018-12-23T21:33:04.468Z,0.83
2018-12-23T21:36:10.305Z,0.80
2018-12-23T21:39:18.825Z,0.50
2018-12-23T21:42:41.467Z,0.53
2018-12-23T21:45:46.917Z,0.47
2018-12-23T21:49:22.098Z,0.47
2018-12-23T21:52:23.775Z,0.63
2018-12-23T21:55:43.443Z,0.33
2018-12-23T21:58:44.560Z,0.50
2018-12-23T22:01:50.315Z,0.53
2018-12-23T22:05:02.563Z,0.30
2018-12-23T22:08:21.240Z,0.57
2018-12-23T22:11:06.475Z,0.20
2018-12-23T22:13:36.364Z,0.33
2018-12-23T22:16:05.915Z,0.30
2018-12-23T22:18:35.493Z,0.50
2018-12-23T22:21:05.043Z,0.40
2018-12-23T22:23:34.599Z,0.43
2018-12-23T22:26:05.141Z,0.40
2018-12-23T22:28:34.647Z,0.30
2018-12-23T22:31:04.318Z,0.47
2018-12-23T22:33:33.810Z,0.40
2018-12-23T22:36:03.427Z,0.37
2018-12-23T22:38:33.279Z,0.30
2018-12-23T22:41:09.640Z,0.27
2018-12-23T22:43:39.141Z,0.40
2018-12-23T22:46:08.800Z,0.50
2018-12-23T22:48:38.406Z,0.30
2018-12-23T22:51:08.079Z,0.40
2018-12-23T22:53:37.867Z,0.30
2018-12-23T22:56:07.405Z,0.30
2018-12-23T22:58:36.890Z,0.43
2018-12-23T23:01:06.713Z,0.30
2018-12-23T23:03:36.699Z,0.47
2018-12-23T23:06:06.240Z,0.20
2018-12-23T23:08:35.771Z,0.23
2018-12-23T23:11:05.299Z,0.30
2018-12-23T23:13:34.803Z,0.30
2018-12-23T23:16:04.488Z,0.30
2018-12-23T23:18:33.967Z,0.20
2018-12-23T23:21:03.540Z,0.30
2018-12-23T23:23:33.572Z,0.20
2018-12-23T23:26:03.341Z,0.33
2018-12-23T23:28:33.315Z,0.40
2018-12-23T23:31:03.608Z,0.30
2018-12-23T23:33:33.161Z,0.33
2018-12-23T23:36:03.274Z,0.20
2018-12-23T23:38:32.799Z,0.50
2018-12-23T23:41:02.452Z,0.30
2018-12-23T23:43:32.232Z,0.20
2018-12-23T23:46:02.268Z,0.20
2018-12-23T23:48:32.059Z,0.20
2018-12-23T23:51:01.697Z,0.30
2018-12-23T23:53:31.516Z,0.50
2018-12-23T23:56:01.100Z,0.30
2018-12-23T23:58:30.619Z,0.30
